createdAt,value
2023-05-19T00:01:44.120Z,15.42
2023-05-19T00:04:12.675Z,15.39
2023-05-19T00:06:41.665Z,15.35
2023-05-19T00:09:09.701Z,15.34
2023-05-19T00:11:37.627Z,15.33
2023-05-19T00:14:08.741Z,15.32
2023-05-19T00:16:36.429Z,15.31
2023-05-19T00:19:04.191Z,15.29
2023-05-19T00:21:31.545Z,15.27
2023-05-19T00:23:58.674Z,15.25
2023-05-19T00:26:27.403Z,15.24
2023-05-19T00:28:56.553Z,15.24
2023-05-19T00:31:23.649Z,15.23
2023-05-19T00:33:50.721Z,15.22
2023-05-19T00:36:17.731Z,15.18
2023-05-19T00:38:44.745Z,15.14
2023-05-19T00:41:12.537Z,15.08
2023-05-19T00:43:39.625Z,15.05
2023-05-19T00:46:07.693Z,15.01
2023-05-19T00:48:35.186Z,14.98
2023-05-19T00:51:04.906Z,14.95
2023-05-19T00:53:35.324Z,14.93
2023-05-19T00:56:02.473Z,14.90
2023-05-19T00:58:30.514Z,14.88
2023-05-19T01:01:03.697Z,14.85
2023-05-19T01:03:35.766Z,14.82
2023-05-19T01:06:07.522Z,14.77
2023-05-19T01:08:38.261Z,14.72
2023-05-19T01:11:06.932Z,14.70
2023-05-19T01:13:34.919Z,14.70
2023-05-19T01:16:01.940Z,14.71
2023-05-19T01:18:56.511Z,14.73
2023-05-19T01:21:45.411Z,14.75
2023-05-19T01:24:45.579Z,14.76
2023-05-19T01:27:38.282Z,14.76
2023-05-19T01:30:22.513Z,14.75
2023-05-19T01:32:49.595Z,14.75
2023-05-19T01:35:16.751Z,14.77
2023-05-19T01:37:45.491Z,14.78
2023-05-19T01:40:13.029Z,14.79
2023-05-19T01:42:40.217Z,14.80
2023-05-19T01:45:10.585Z,14.81
2023-05-19T01:47:43.922Z,14.82
2023-05-19T01:50:11.507Z,14.84
2023-05-19T01:52:38.697Z,14.85
2023-05-19T01:55:06.414Z,14.85
2023-05-19T01:57:39.537Z,14.86
2023-05-19T02:00:16.853Z,14.85
2023-05-19T02:03:13.996Z,14.83
2023-05-19T02:05:48.261Z,14.81
2023-05-19T02:08:20.804Z,14.79
2023-05-19T02:10:52.291Z,14.77
2023-05-19T02:13:21.563Z,14.75
2023-05-19T02:15:48.818Z,14.73
2023-05-19T02:18:18.076Z,14.70
2023-05-19T02:20:49.962Z,14.68
2023-05-19T02:23:17.571Z,14.67
2023-05-19T02:25:44.683Z,14.67
2023-05-19T02:28:11.900Z,14.67
2023-05-19T02:30:38.984Z,14.68
2023-05-19T02:33:06.776Z,14.68
2023-05-19T02:35:34.131Z,14.71
2023-05-19T02:38:01.320Z,14.74
2023-05-19T02:40:28.572Z,14.79
2023-05-19T02:42:55.634Z,14.84
2023-05-19T02:45:22.956Z,14.88
2023-05-19T02:47:50.034Z,14.92
2023-05-19T02:50:17.302Z,14.98
2023-05-19T02:52:44.362Z,15.03
2023-05-19T02:55:17.125Z,15.07
2023-05-19T02:57:44.291Z,15.11
2023-05-19T03:00:12.129Z,15.13
2023-05-19T03:02:40.008Z,15.15
2023-05-19T03:05:08.714Z,15.18
2023-05-19T03:07:36.390Z,15.24
2023-05-19T03:10:06.941Z,15.30
2023-05-19T03:12:34.144Z,15.34
2023-05-19T03:15:01.192Z,15.38
2023-05-19T03:17:33.947Z,15.45
2023-05-19T03:20:01.692Z,15.50
2023-05-19T03:22:28.787Z,15.47
2023-05-19T03:24:56.092Z,15.45
2023-05-19T03:27:23.251Z,15.43
2023-05-19T03:29:50.942Z,15.42
2023-05-19T03:32:18.077Z,15.41
2023-05-19T03:34:46.154Z,15.40
2023-05-19T03:37:13.377Z,15.43
2023-05-19T03:39:40.710Z,15.45
2023-05-19T03:42:07.984Z,15.47
2023-05-19T03:44:35.508Z,15.51
2023-05-19T03:47:02.583Z,15.56
2023-05-19T03:49:54.722Z,15.63
2023-05-19T03:52:51.035Z,15.71
2023-05-19T03:55:30.087Z,15.82
2023-05-19T03:57:57.470Z,15.97
2023-05-19T04:00:24.683Z,16.11
2023-05-19T04:02:52.038Z,16.28
2023-05-19T04:05:19.280Z,16.42
2023-05-19T04:07:46.965Z,16.54
2023-05-19T04:10:14.038Z,16.66
2023-05-19T04:12:41.115Z,16.75
2023-05-19T04:15:11.563Z,16.85
2023-05-19T04:17:38.688Z,16.93
2023-05-19T04:20:06.800Z,17.01
2023-05-19T04:22:33.820Z,17.11
2023-05-19T04:25:01.102Z,17.20
2023-05-19T04:27:30.195Z,17.33
2023-05-19T04:29:58.329Z,17.47
2023-05-19T04:32:25.947Z,17.56
2023-05-19T04:34:53.520Z,17.63
2023-05-19T04:37:24.367Z,17.65
2023-05-19T04:39:52.457Z,17.72
2023-05-19T04:42:19.901Z,17.81
2023-05-19T04:44:49.484Z,17.90
2023-05-19T04:47:16.781Z,18.01
2023-05-19T04:49:44.468Z,18.15
2023-05-19T04:52:11.894Z,18.34
2023-05-19T04:54:40.028Z,18.50
2023-05-19T04:57:07.386Z,18.64
2023-05-19T04:59:37.152Z,18.75
2023-05-19T05:02:06.023Z,18.80
2023-05-19T05:04:33.741Z,18.78
2023-05-19T05:07:01.508Z,18.72
2023-05-19T05:09:29.101Z,18.63
2023-05-19T05:11:57.728Z,18.59
2023-05-19T05:14:25.676Z,18.61
2023-05-19T05:16:54.119Z,18.65
2023-05-19T05:19:23.979Z,18.70
2023-05-19T05:21:52.314Z,18.78
2023-05-19T05:24:20.476Z,18.92
2023-05-19T05:26:51.894Z,19.10
2023-05-19T05:29:19.898Z,19.26
2023-05-19T05:31:46.953Z,19.40
2023-05-19T05:34:14.102Z,19.54
2023-05-19T05:36:41.466Z,19.63
2023-05-19T05:39:09.419Z,19.71
2023-05-19T05:41:36.792Z,19.82
2023-05-19T05:44:10.724Z,19.92
2023-05-19T05:46:39.305Z,20.03
2023-05-19T05:49:07.078Z,20.16
2023-05-19T05:51:34.865Z,20.25
2023-05-19T05:54:02.415Z,20.33
2023-05-19T05:56:37.113Z,20.40
2023-05-19T05:59:06.012Z,20.45
2023-05-19T06:01:35.496Z,20.51
2023-05-19T06:04:03.431Z,20.56
2023-05-19T06:06:31.444Z,20.64
2023-05-19T06:08:59.555Z,20.72
2023-05-19T06:11:28.872Z,20.90
2023-05-19T06:13:57.352Z,21.08
2023-05-19T06:16:51.118Z,21.28
2023-05-19T06:19:20.163Z,21.45
2023-05-19T06:21:48.525Z,21.57
2023-05-19T06:24:16.681Z,21.65
2023-05-19T06:26:45.382Z,21.75
2023-05-19T06:29:12.579Z,21.89
2023-05-19T06:31:40.040Z,21.98
2023-05-19T06:34:12.807Z,21.97
2023-05-19T06:36:41.677Z,21.96
2023-05-19T06:39:09.156Z,21.99
2023-05-19T06:41:36.471Z,22.11
2023-05-19T06:44:04.429Z,22.26
2023-05-19T06:46:33.706Z,22.40
2023-05-19T06:49:01.423Z,22.54
2023-05-19T06:51:32.414Z,22.66
2023-05-19T06:54:00.365Z,22.84
2023-05-19T06:56:28.368Z,23.00
2023-05-19T06:58:56.361Z,23.12
2023-05-19T07:01:28.119Z,23.26
2023-05-19T07:03:55.683Z,23.44
2023-05-19T07:06:23.136Z,23.61
2023-05-19T07:08:50.980Z,23.69
2023-05-19T07:11:19.222Z,23.73
2023-05-19T07:13:47.726Z,23.81
2023-05-19T07:16:18.213Z,23.93
2023-05-19T07:18:45.405Z,24.04
2023-05-19T07:21:12.451Z,24.17
2023-05-19T07:23:39.664Z,24.30
2023-05-19T07:26:06.705Z,24.39
2023-05-19T07:28:34.637Z,24.48
2023-05-19T07:31:01.667Z,24.54
2023-05-19T07:33:28.863Z,24.63
2023-05-19T07:35:56.361Z,24.72
2023-05-19T07:38:23.487Z,24.73
2023-05-19T07:40:50.602Z,24.66
2023-05-19T07:43:17.717Z,24.60
2023-05-19T07:45:44.822Z,24.56
2023-05-19T07:48:12.008Z,24.51
2023-05-19T07:50:39.229Z,24.50
2023-05-19T07:53:06.382Z,24.51
2023-05-19T07:55:33.541Z,24.55
2023-05-19T07:58:00.957Z,24.56
2023-05-19T08:00:28.506Z,24.60
2023-05-19T08:02:57.297Z,24.73
2023-05-19T08:05:26.140Z,24.96
2023-05-19T08:07:53.353Z,25.21
2023-05-19T08:10:20.437Z,25.29
2023-05-19T08:12:47.520Z,25.35
2023-05-19T08:15:14.634Z,25.44
2023-05-19T08:17:41.772Z,25.50
2023-05-19T08:20:10.396Z,25.52
2023-05-19T08:22:37.624Z,25.44
2023-05-19T08:25:06.480Z,25.37
2023-05-19T08:27:33.772Z,25.26
2023-05-19T08:30:00.968Z,25.10
2023-05-19T08:32:28.164Z,24.88
2023-05-19T08:34:55.354Z,24.62
2023-05-19T08:37:22.927Z,24.29
2023-05-19T08:39:51.773Z,23.99
2023-05-19T08:42:19.334Z,23.76
2023-05-19T08:44:46.480Z,23.55
2023-05-19T08:47:14.061Z,23.32
2023-05-19T08:49:45.523Z,23.05
2023-05-19T08:52:22.286Z,22.77
2023-05-19T08:55:09.790Z,22.53
2023-05-19T08:57:37.167Z,22.34
2023-05-19T09:00:12.384Z,22.22
2023-05-19T09:02:50.433Z,22.14
2023-05-19T09:05:27.051Z,22.08
2023-05-19T09:07:54.377Z,22.04
2023-05-19T09:10:21.558Z,21.99
2023-05-19T09:12:49.832Z,21.93
2023-05-19T09:15:18.983Z,21.96
2023-05-19T09:17:48.280Z,22.02
2023-05-19T09:20:17.052Z,22.03
2023-05-19T09:22:47.671Z,22.06
2023-05-19T09:25:18.373Z,22.15
2023-05-19T09:27:46.982Z,22.25
2023-05-19T09:30:15.297Z,22.35
2023-05-19T09:32:43.270Z,22.43
2023-05-19T09:35:11.805Z,22.46
2023-05-19T09:37:42.225Z,22.49
2023-05-19T09:40:11.360Z,22.59
2023-05-19T09:42:42.431Z,22.74
2023-05-19T09:45:09.902Z,22.94
2023-05-19T09:47:38.493Z,23.15
2023-05-19T09:50:08.179Z,23.40
2023-05-19T09:52:36.438Z,23.65
2023-05-19T09:55:05.730Z,23.82
2023-05-19T09:57:40.279Z,23.92
2023-05-19T10:00:20.968Z,24.00
2023-05-19T10:02:48.295Z,24.09
2023-05-19T10:05:17.725Z,24.13
2023-05-19T10:07:45.943Z,24.19
2023-05-19T10:10:14.165Z,24.26
2023-05-19T10:12:41.446Z,24.33
2023-05-19T10:15:19.232Z,24.40
2023-05-19T10:17:47.833Z,24.46
2023-05-19T10:20:16.202Z,24.47
2023-05-19T10:22:44.337Z,24.44
2023-05-19T10:25:13.158Z,24.44
2023-05-19T10:27:45.268Z,24.54
2023-05-19T10:30:16.337Z,24.67
2023-05-19T10:32:44.410Z,24.82
2023-05-19T10:35:42.405Z,24.95
2023-05-19T10:38:43.689Z,25.05
2023-05-19T10:41:13.444Z,25.18
2023-05-19T10:43:59.379Z,25.25
2023-05-19T10:46:27.248Z,25.33
2023-05-19T10:48:54.414Z,25.40
2023-05-19T10:51:21.639Z,25.47
2023-05-19T10:53:50.245Z,25.51
2023-05-19T10:56:36.154Z,25.56
2023-05-19T10:59:05.079Z,25.63
2023-05-19T11:01:36.282Z,25.63
2023-05-19T11:04:07.861Z,25.60
2023-05-19T11:06:38.314Z,25.64
2023-05-19T11:09:16.369Z,25.75
2023-05-19T11:11:48.294Z,25.88
2023-05-19T11:14:20.382Z,26.06
2023-05-19T11:16:48.569Z,26.18
2023-05-19T11:19:20.846Z,26.25
2023-05-19T11:21:53.009Z,26.31
2023-05-19T11:24:44.752Z,26.38
2023-05-19T11:27:21.672Z,26.49
2023-05-19T11:29:49.090Z,26.70
2023-05-19T11:32:16.412Z,26.85
2023-05-19T11:34:44.815Z,26.87
2023-05-19T11:37:12.143Z,26.87
2023-05-19T11:39:39.852Z,26.92
2023-05-19T11:42:08.863Z,26.99
2023-05-19T11:44:37.231Z,27.01
2023-05-19T11:47:05.372Z,27.05
2023-05-19T11:49:32.736Z,27.09
2023-05-19T11:52:03.453Z,27.18
2023-05-19T11:54:37.234Z,27.29
2023-05-19T11:57:04.764Z,27.45
2023-05-19T11:59:34.223Z,27.61
2023-05-19T12:02:17.383Z,27.77
2023-05-19T12:04:44.603Z,27.86
2023-05-19T12:07:13.197Z,27.99
2023-05-19T12:09:40.598Z,28.12
2023-05-19T12:12:08.099Z,28.01
2023-05-19T12:14:36.029Z,27.69
2023-05-19T12:17:17.168Z,27.17
2023-05-19T12:19:44.734Z,26.62
2023-05-19T12:22:11.848Z,26.20
2023-05-19T12:24:38.979Z,25.69
2023-05-19T12:27:26.829Z,25.28
2023-05-19T12:29:55.067Z,24.92
2023-05-19T12:32:25.871Z,24.64
2023-05-19T12:34:53.586Z,24.44
2023-05-19T12:37:21.322Z,24.40
2023-05-19T12:39:51.993Z,24.52
2023-05-19T12:42:20.098Z,24.69
2023-05-19T12:44:48.588Z,24.84
2023-05-19T12:47:16.220Z,24.98
2023-05-19T12:49:56.716Z,25.07
2023-05-19T12:52:24.216Z,25.17
2023-05-19T12:55:07.962Z,25.29
2023-05-19T12:57:37.623Z,25.41
2023-05-19T13:00:14.076Z,25.65
2023-05-19T13:03:00.631Z,25.87
2023-05-19T13:05:30.941Z,26.33
2023-05-19T13:08:00.726Z,26.84
2023-05-19T13:10:31.523Z,27.34
2023-05-19T13:13:00.311Z,27.50
2023-05-19T13:15:34.674Z,27.15
2023-05-19T13:18:03.581Z,26.53
2023-05-19T13:20:31.125Z,25.94
2023-05-19T13:22:58.557Z,25.45
2023-05-19T13:25:26.548Z,25.06
2023-05-19T13:27:54.583Z,24.68
2023-05-19T13:30:22.140Z,24.30
2023-05-19T13:32:49.268Z,23.99
2023-05-19T13:35:16.380Z,23.76
2023-05-19T13:37:43.656Z,23.55
2023-05-19T13:40:11.133Z,23.35
2023-05-19T13:42:38.276Z,23.15
2023-05-19T13:45:05.689Z,22.95
2023-05-19T13:47:32.957Z,22.72
2023-05-19T13:50:00.126Z,22.48
2023-05-19T13:52:29.069Z,22.22
2023-05-19T13:54:57.662Z,22.07
2023-05-19T13:57:25.687Z,21.95
2023-05-19T14:00:01.972Z,22.00
2023-05-19T14:02:39.700Z,22.24
2023-05-19T14:05:07.639Z,22.48
2023-05-19T14:07:35.395Z,22.85
2023-05-19T14:10:04.067Z,23.47
2023-05-19T14:12:43.162Z,24.27
2023-05-19T14:15:14.743Z,25.11
2023-05-19T14:17:42.919Z,25.90
2023-05-19T14:20:10.693Z,26.74
2023-05-19T14:22:38.545Z,27.55
2023-05-19T14:25:06.559Z,28.29
2023-05-19T14:27:33.609Z,28.96
2023-05-19T14:30:00.851Z,29.55
2023-05-19T14:32:30.268Z,30.07
2023-05-19T14:34:57.767Z,30.36
2023-05-19T14:37:27.700Z,30.22
2023-05-19T14:39:55.123Z,29.79
2023-05-19T14:42:22.136Z,29.23
2023-05-19T14:44:49.227Z,28.66
2023-05-19T14:47:16.421Z,28.08
2023-05-19T14:49:43.572Z,27.53
2023-05-19T14:52:10.696Z,27.11
2023-05-19T14:54:37.817Z,26.86
2023-05-19T14:57:07.378Z,26.68
2023-05-19T14:59:38.754Z,26.55
2023-05-19T15:02:06.202Z,26.52
2023-05-19T15:04:33.289Z,26.55
2023-05-19T15:09:30.799Z,26.31
2023-05-19T15:11:58.255Z,26.01
2023-05-19T15:14:26.214Z,25.62
2023-05-19T15:16:54.882Z,25.22
2023-05-19T15:19:22.051Z,24.86
2023-05-19T15:21:50.810Z,24.64
2023-05-19T15:24:18.047Z,24.60
2023-05-19T15:26:45.513Z,24.64
2023-05-19T15:29:12.539Z,24.68
2023-05-19T15:31:39.737Z,24.68
2023-05-19T15:34:06.836Z,24.60
2023-05-19T15:36:33.903Z,24.48
2023-05-19T15:39:01.013Z,24.38
2023-05-19T15:41:28.085Z,24.22
2023-05-19T15:43:55.351Z,24.05
2023-05-19T15:46:23.033Z,23.90
2023-05-19T15:48:50.169Z,23.73
2023-05-19T15:51:17.275Z,23.56
2023-05-19T15:53:44.402Z,23.40
2023-05-19T15:56:11.608Z,23.27
2023-05-19T15:58:38.643Z,23.15
2023-05-19T16:01:05.966Z,23.03
2023-05-19T16:03:33.619Z,22.91
2023-05-19T16:06:01.228Z,22.78
2023-05-19T16:08:28.843Z,22.68
2023-05-19T16:10:56.462Z,22.59
2023-05-19T16:13:23.980Z,22.50
2023-05-19T16:15:51.071Z,22.44
2023-05-19T16:18:18.466Z,22.40
2023-05-19T16:20:55.352Z,22.38
2023-05-19T16:23:27.597Z,22.37
2023-05-19T16:25:55.073Z,22.37
2023-05-19T16:28:24.470Z,22.38
2023-05-19T16:30:51.944Z,22.41
2023-05-19T16:33:19.029Z,22.45
2023-05-19T16:35:46.188Z,22.45
2023-05-19T16:38:13.267Z,22.40
2023-05-19T16:40:40.386Z,22.33
2023-05-19T16:43:07.458Z,22.25
2023-05-19T16:45:34.621Z,22.17
2023-05-19T16:48:01.957Z,22.03
2023-05-19T16:50:29.211Z,21.81
2023-05-19T16:52:56.309Z,21.51
2023-05-19T16:55:25.481Z,21.16
2023-05-19T16:57:52.817Z,20.92
2023-05-19T17:00:20.137Z,20.69
2023-05-19T17:02:47.339Z,20.54
2023-05-19T17:05:14.506Z,20.39
2023-05-19T17:07:41.761Z,20.25
2023-05-19T17:10:09.477Z,20.17
2023-05-19T17:12:37.077Z,20.22
2023-05-19T17:15:04.597Z,20.32
2023-05-19T17:17:31.723Z,20.37
2023-05-19T17:19:58.849Z,20.41
2023-05-19T17:22:26.658Z,20.45
2023-05-19T17:24:54.891Z,20.47
2023-05-19T17:27:22.800Z,20.44
2023-05-19T17:29:49.878Z,20.39
2023-05-19T17:32:18.135Z,20.33
2023-05-19T17:34:45.264Z,20.28
2023-05-19T17:37:12.501Z,20.22
2023-05-19T17:39:39.783Z,20.17
2023-05-19T17:42:07.169Z,20.14
2023-05-19T17:44:34.328Z,20.09
2023-05-19T17:47:02.595Z,19.99
2023-05-19T17:49:30.699Z,19.87
2023-05-19T17:51:58.568Z,19.81
2023-05-19T17:54:26.587Z,19.81
2023-05-19T17:56:53.763Z,19.80
2023-05-19T17:59:21.404Z,19.77
2023-05-19T18:01:49.364Z,19.73
2023-05-19T18:04:20.115Z,19.69
2023-05-19T18:06:47.629Z,19.62
2023-05-19T18:09:15.279Z,19.56
2023-05-19T18:11:42.609Z,19.50
2023-05-19T18:14:10.077Z,19.44
2023-05-19T18:16:38.233Z,19.40
2023-05-19T18:19:06.949Z,19.36
2023-05-19T18:21:34.565Z,19.33
2023-05-19T18:24:04.458Z,19.31
2023-05-19T18:26:31.863Z,19.30
2023-05-19T18:29:02.773Z,19.28
2023-05-19T18:31:29.938Z,19.25
2023-05-19T18:33:57.158Z,19.18
2023-05-19T18:36:26.846Z,19.08
2023-05-19T18:38:55.344Z,19.00
2023-05-19T18:41:22.478Z,18.93
2023-05-19T18:43:49.737Z,18.86
2023-05-19T18:46:20.484Z,18.81
2023-05-19T18:48:49.949Z,18.77
2023-05-19T18:51:18.885Z,18.71
2023-05-19T18:53:48.811Z,18.66
2023-05-19T18:56:23.267Z,18.61
2023-05-19T18:58:50.365Z,18.58
2023-05-19T19:01:17.521Z,18.56
2023-05-19T19:03:46.928Z,18.55
2023-05-19T19:06:14.166Z,18.55
2023-05-19T19:08:41.478Z,18.53
2023-05-19T19:11:11.381Z,18.51
2023-05-19T19:13:38.615Z,18.48
2023-05-19T19:16:07.035Z,18.43
2023-05-19T19:18:37.409Z,18.38
2023-05-19T19:21:05.964Z,18.33
2023-05-19T19:23:33.506Z,18.31
2023-05-19T19:26:00.960Z,18.29
2023-05-19T19:28:28.654Z,18.27
2023-05-19T19:30:55.770Z,18.24
2023-05-19T19:33:22.992Z,18.20
2023-05-19T19:35:50.060Z,18.14
2023-05-19T19:38:17.278Z,18.08
2023-05-19T19:40:44.601Z,18.03
2023-05-19T19:43:12.232Z,18.02
2023-05-19T19:45:39.793Z,18.01
2023-05-19T19:48:07.470Z,18.01
2023-05-19T19:50:34.749Z,18.02
2023-05-19T19:53:02.176Z,18.03
2023-05-19T19:55:30.837Z,18.05
2023-05-19T19:57:58.036Z,18.08
2023-05-19T20:00:25.725Z,18.10
2023-05-19T20:03:04.612Z,18.12
2023-05-19T20:05:32.921Z,18.13
2023-05-19T20:08:00.103Z,18.13
2023-05-19T20:10:27.191Z,18.12
2023-05-19T20:12:54.323Z,18.11
2023-05-19T20:15:21.632Z,18.10
2023-05-19T20:17:49.883Z,18.10
2023-05-19T20:20:17.043Z,18.13
2023-05-19T20:22:46.061Z,18.16
2023-05-19T20:25:13.118Z,18.19
2023-05-19T20:27:40.692Z,18.19
2023-05-19T20:30:08.348Z,18.19
2023-05-19T20:32:35.835Z,18.15
2023-05-19T20:35:02.932Z,18.12
2023-05-19T20:37:29.972Z,18.08
2023-05-19T20:39:56.961Z,18.04
2023-05-19T20:42:24.507Z,18.02
2023-05-19T20:44:52.189Z,17.99
2023-05-19T20:47:19.443Z,17.97
2023-05-19T20:49:46.651Z,17.95
2023-05-19T20:52:14.877Z,17.92
2023-05-19T20:54:42.221Z,17.90
2023-05-19T20:57:09.607Z,17.89
2023-05-19T20:59:36.713Z,17.89
2023-05-19T21:02:04.498Z,17.87
2023-05-19T21:04:33.064Z,17.87
2023-05-19T21:07:00.742Z,17.86
2023-05-19T21:09:27.878Z,17.85
2023-05-19T21:11:54.893Z,17.85
2023-05-19T21:14:22.088Z,17.85
2023-05-19T21:16:50.037Z,17.85
2023-05-19T21:19:17.212Z,17.84
2023-05-19T21:21:45.091Z,17.83
2023-05-19T21:24:13.085Z,17.82
2023-05-19T21:26:42.034Z,17.80
2023-05-19T21:29:10.238Z,17.80
2023-05-19T21:31:37.363Z,17.83
2023-05-19T21:34:06.190Z,17.85
2023-05-19T21:36:35.550Z,17.87
2023-05-19T21:39:03.791Z,17.87
2023-05-19T21:41:32.543Z,17.86
2023-05-19T21:43:59.638Z,17.84
2023-05-19T21:46:29.164Z,17.82
2023-05-19T21:48:56.413Z,17.83
2023-05-19T21:51:23.442Z,17.83
2023-05-19T21:53:50.727Z,17.81
2023-05-19T21:56:17.792Z,17.79
2023-05-19T21:58:45.167Z,17.74
2023-05-19T22:01:13.393Z,17.72
2023-05-19T22:03:40.451Z,17.69
2023-05-19T22:06:07.744Z,17.66
2023-05-19T22:08:34.899Z,17.63
2023-05-19T22:11:02.189Z,17.59
2023-05-19T22:13:29.488Z,17.54
2023-05-19T22:15:57.800Z,17.47
2023-05-19T22:18:25.305Z,17.40
2023-05-19T22:20:52.609Z,17.32
2023-05-19T22:23:19.664Z,17.25
2023-05-19T22:25:46.677Z,17.19
2023-05-19T22:28:13.809Z,17.13
2023-05-19T22:30:42.601Z,17.09
2023-05-19T22:33:11.436Z,17.04
2023-05-19T22:35:38.962Z,17.01
2023-05-19T22:38:07.526Z,16.98
2023-05-19T22:40:38.085Z,16.94
2023-05-19T22:43:05.848Z,16.89
2023-05-19T22:45:34.547Z,16.84
2023-05-19T22:48:02.338Z,16.81
2023-05-19T22:50:29.408Z,16.80
2023-05-19T22:52:56.651Z,16.84
2023-05-19T22:55:23.930Z,16.89
2023-05-19T22:57:51.304Z,16.94
2023-05-19T23:00:21.389Z,17.00
2023-05-19T23:02:48.451Z,17.04
2023-05-19T23:05:15.822Z,17.08
2023-05-19T23:07:42.933Z,17.11
2023-05-19T23:10:10.389Z,17.13
2023-05-19T23:12:37.419Z,17.14
2023-05-19T23:15:04.918Z,17.15
2023-05-19T23:17:32.104Z,17.14
2023-05-19T23:19:59.157Z,17.14
2023-05-19T23:22:26.202Z,17.14
2023-05-19T23:24:53.236Z,17.12
2023-05-19T23:27:20.236Z,17.10
2023-05-19T23:29:49.633Z,17.09
2023-05-19T23:32:16.812Z,17.05
2023-05-19T23:34:43.861Z,17.01
2023-05-19T23:37:11.765Z,16.98
2023-05-19T23:39:38.834Z,16.94
2023-05-19T23:42:06.209Z,16.91
2023-05-19T23:44:33.244Z,16.87
2023-05-19T23:47:00.428Z,16.84
2023-05-19T23:49:27.556Z,16.80
2023-05-19T23:51:54.785Z,16.78
2023-05-19T23:54:21.871Z,16.75
2023-05-19T23:56:48.899Z,16.73
2023-05-19T23:59:15.923Z,16.71
